Airfield :
LOGIN :

Register | Disclaimer

   EN    FR    IT 

 










Legend :    VFR   Marginal VFR   IFR   Intensive IFR   Very Intensive IFR
Visi :
Ceiling :
>= 8 km
>= 3000ft
5 to 8 km
1000 to 3000 ft
1500m to 5 km
500 to 1000 ft
800 to 1500m
200 to 500 ft
< 800m
< 200 ft
Symbols :   Thunderstorms  Fog  Heavy snow  Heavy precipitations  Wind > 20 kt
SIGMETs :     Misc.  Thunderstorms  Icing  Turbulence  Mountain Waves  Volcanic Ashes







- Airport Elevation : 526 ft
- IATA code : LTN
- Download approach charts


EGGW - London Luton

CURRENT METAR :
  • 171850Z AUTO 24006KT 9999 NCD 20/13 Q1011

EXPIRED METARs :
  • 171820Z AUTO 26010KT 9999 BKN048 22/11 Q1011
  • 171750Z AUTO 25011KT 9999 NCD 23/12 Q1012
  • 171720Z AUTO 25010KT 9999 SCT047 23/12 Q1012
  • 171650Z AUTO 24007KT 9999 NCD 24/09 Q1012
  • 171620Z AUTO 23007KT 200V270 9999 NCD 24/09 Q1012

TAF TAF EGGW
Valid from the 17 at 18:00 until the 18 at 18:00 UTC


171701Z 1718/1818 25008KT 9999 FEW045
TEMPO 1800/1809 8000 -RA
TEMPO 1805/1809 BKN014
PROB40
TEMPO 1805/1809 4000 RADZ BKN008
PROB30
TEMPO 1809/1812 7000 SHRA BKN012
ATIS : +44 1582 395 204
No reported NOTAMs for that airfield.



MET'MAP, your aeronautical weather chart ! - Copyright ORBIFLY December 2007 - Disclaimer

ORBIFLY MET'MAP TEAM :

Programming & Development : Alexandra Zaïnal
Concept & Development : Baudouin d'Aumeries
Co-Development & Prog : Marc-Olivier Méhu
Technical & hardware support : Manuel Goepfert

Contact : metmap@orbifly.com




SOURCES & CREDITS :

   NOAA